createdAt,value
2019-05-06T00:00:09.415Z,92.46
2019-05-06T00:02:37.776Z,93.38
2019-05-06T00:05:06.150Z,93.95
2019-05-06T00:07:34.488Z,93.34
2019-05-06T00:10:02.845Z,92.30
2019-05-06T00:15:05.425Z,94.95
2019-05-06T00:17:34.888Z,94.27
2019-05-06T00:20:04.278Z,94.14
2019-05-06T00:22:30.501Z,94.06
2019-05-06T00:27:37.407Z,94.12
2019-05-06T00:30:05.778Z,94.14
2019-05-06T00:32:34.843Z,93.58
2019-05-06T00:35:04.460Z,92.09
2019-05-06T00:37:30.830Z,92.98
2019-05-06T00:40:01.641Z,93.41
2019-05-06T00:42:29.978Z,93.92
2019-05-06T00:44:58.321Z,95.28
2019-05-06T00:47:26.727Z,94.72
2019-05-06T00:49:55.074Z,94.86
2019-05-06T00:52:25.986Z,95.23
2019-05-06T00:54:54.738Z,96.28
2019-05-06T00:59:59.354Z,96.21
2019-05-06T01:02:27.731Z,95.77
2019-05-06T01:04:56.120Z,96.33
2019-05-06T01:07:24.463Z,97.28
2019-05-06T01:09:54.144Z,97.29
2019-05-06T01:12:21.109Z,97.71
2019-05-06T01:14:49.447Z,97.78
2019-05-06T01:17:17.830Z,96.37
2019-05-06T01:19:46.164Z,97.51
2019-05-06T01:22:14.505Z,98.79
2019-05-06T01:24:43.941Z,98.23
2019-05-06T01:27:11.214Z,97.26
2019-05-06T01:29:39.584Z,95.97
2019-05-06T01:32:07.939Z,93.99
2019-05-06T01:34:36.265Z,93.56
2019-05-06T01:37:05.600Z,92.59
2019-05-06T01:39:35.263Z,91.47
2019-05-06T01:42:09.097Z,91.46
2019-05-06T01:44:37.412Z,91.15
2019-05-06T01:49:41.454Z,90.06
2019-05-06T01:52:10.040Z,91.13
2019-05-06T01:54:38.382Z,91.72
2019-05-06T01:57:06.736Z,92.11
2019-05-06T02:02:14.145Z,92.03
2019-05-06T02:04:41.638Z,91.39
2019-05-06T02:07:09.989Z,91.17
2019-05-06T02:14:46.859Z,91.91
2019-05-06T02:17:15.311Z,92.07
2019-05-06T02:19:43.936Z,92.00
2019-05-06T02:22:13.655Z,91.34
2019-05-06T02:24:44.012Z,90.96
2019-05-06T02:27:13.923Z,90.40
2019-05-06T02:32:21.065Z,90.84
2019-05-06T02:34:46.272Z,90.15
2019-05-06T02:37:14.808Z,91.18
2019-05-06T02:39:43.779Z,92.12
2019-05-06T02:42:13.054Z,91.58
2019-05-06T02:44:39.399Z,91.99
2019-05-06T02:47:13.750Z,92.67
2019-05-06T02:49:44.241Z,92.80
2019-05-06T02:52:10.057Z,90.52
2019-05-06T02:54:38.391Z,88.70
2019-05-06T02:57:06.735Z,87.69
2019-05-06T02:59:35.078Z,87.55
2019-05-06T03:02:03.731Z,87.85
2019-05-06T03:04:33.254Z,88.63
2019-05-06T03:07:03.435Z,88.12
2019-05-06T03:09:28.400Z,88.15
2019-05-06T03:11:56.755Z,88.09
2019-05-06T03:14:25.099Z,87.76
2019-05-06T03:19:27.710Z,88.25
2019-05-06T03:22:03.417Z,88.59
2019-05-06T03:24:32.960Z,88.09
2019-05-06T03:26:58.703Z,88.35
2019-05-06T03:29:27.027Z,88.07
2019-05-06T03:34:52.784Z,87.42
2019-05-06T03:36:57.999Z,88.73
2019-05-06T03:39:26.350Z,87.14
2019-05-06T03:41:54.675Z,87.59
2019-05-06T03:44:23.877Z,87.75
2019-05-06T03:46:58.661Z,88.65
2019-05-06T03:49:27.888Z,88.22
2019-05-06T03:51:56.613Z,87.72
2019-05-06T03:54:24.608Z,88.00
2019-05-06T03:56:53.778Z,88.71
2019-05-06T03:59:23.308Z,87.86
2019-05-06T04:01:49.760Z,88.26
2019-05-06T04:04:18.149Z,88.05
2019-05-06T04:06:46.473Z,87.38
2019-05-06T04:09:14.856Z,86.12
2019-05-06T04:11:43.398Z,86.83
2019-05-06T04:14:14.002Z,87.62
2019-05-06T04:16:44.323Z,87.63
2019-05-06T04:19:13.008Z,87.59
2019-05-06T04:21:43.607Z,86.60
2019-05-06T04:24:14.551Z,86.71
2019-05-06T04:27:03.253Z,86.18
2019-05-06T04:29:35.220Z,86.41
2019-05-06T04:31:59.195Z,86.39
2019-05-06T04:34:27.530Z,86.00
2019-05-06T04:36:55.854Z,86.32
2019-05-06T04:39:24.246Z,86.20
2019-05-06T04:41:53.949Z,86.83
2019-05-06T04:44:23.716Z,86.43
2019-05-06T04:46:50.263Z,86.70
2019-05-06T04:49:18.634Z,85.87
2019-05-06T04:51:46.969Z,84.96
2019-05-06T04:54:15.317Z,85.20
2019-05-06T04:56:44.027Z,85.52
2019-05-06T04:59:13.894Z,86.37
2019-05-06T05:01:40.366Z,85.55
2019-05-06T05:04:22.846Z,84.38
2019-05-06T05:06:37.072Z,82.77
2019-05-06T05:09:06.443Z,82.96
2019-05-06T05:11:35.777Z,83.55
2019-05-06T05:17:02.085Z,81.72
2019-05-06T05:19:28.478Z,82.35
2019-05-06T05:21:56.842Z,81.75
2019-05-06T05:24:25.205Z,80.48
2019-05-06T05:26:54.480Z,80.39
2019-05-06T05:29:23.799Z,78.49
2019-05-06T05:31:53.034Z,77.46
2019-05-06T05:34:22.446Z,77.85
2019-05-06T05:39:23.057Z,76.82
2019-05-06T05:41:52.377Z,77.01
2019-05-06T05:44:22.653Z,78.22
2019-05-06T05:46:49.108Z,77.33
2019-05-06T05:49:20.148Z,75.81
2019-05-06T05:51:47.140Z,76.28
2019-05-06T05:54:15.480Z,77.03
2019-05-06T05:56:43.847Z,75.48
2019-05-06T05:59:12.351Z,75.87
2019-05-06T06:04:14.717Z,77.33
2019-05-06T06:06:44.094Z,77.88
2019-05-06T06:09:12.802Z,78.22
2019-05-06T06:11:43.822Z,78.21
2019-05-06T06:14:17.638Z,77.96
2019-05-06T06:16:52.739Z,78.51
2019-05-06T06:19:22.137Z,77.71
2019-05-06T06:21:48.868Z,76.55
2019-05-06T06:24:18.975Z,74.79
2019-05-06T06:26:48.277Z,73.81
2019-05-06T06:29:16.636Z,73.20
2019-05-06T06:31:45.034Z,76.70
2019-05-06T06:34:23.277Z,75.04
2019-05-06T06:39:32.523Z,74.42
2019-05-06T06:41:58.537Z,75.17
2019-05-06T06:44:27.169Z,73.66
2019-05-06T06:46:55.613Z,73.45
2019-05-06T06:51:58.150Z,72.37
2019-05-06T06:54:26.488Z,71.58
2019-05-06T06:57:08.377Z,71.36
2019-05-06T06:59:27.860Z,70.79
2019-05-06T07:02:12.089Z,68.32
2019-05-06T07:04:42.988Z,66.66
2019-05-06T07:07:12.779Z,66.81
2019-05-06T07:09:38.653Z,67.79
2019-05-06T07:12:07.118Z,68.75
2019-05-06T07:19:47.795Z,67.55
2019-05-06T07:22:16.159Z,65.38
2019-05-06T07:24:45.431Z,66.17
2019-05-06T07:27:13.773Z,66.47
2019-05-06T07:29:48.126Z,65.42
2019-05-06T07:32:12.260Z,66.08
2019-05-06T07:34:38.823Z,64.56
2019-05-06T07:39:43.077Z,59.79
2019-05-06T07:42:09.757Z,60.38
2019-05-06T07:47:36.918Z,58.08
2019-05-06T07:50:05.278Z,62.70
2019-05-06T07:52:33.743Z,59.66
2019-05-06T07:55:03.131Z,52.47
2019-05-06T07:57:33.052Z,56.41
2019-05-06T07:59:59.793Z,60.32
2019-05-06T08:02:28.125Z,58.06
2019-05-06T08:04:56.453Z,55.80
2019-05-06T08:07:25.760Z,49.53
2019-05-06T08:09:54.105Z,55.01
2019-05-06T08:12:22.562Z,50.52
2019-05-06T08:14:52.367Z,52.95
2019-05-06T08:17:22.255Z,54.89
2019-05-06T08:19:49.901Z,47.05
2019-05-06T08:22:22.719Z,44.82
2019-05-06T08:24:50.344Z,51.43
2019-05-06T08:29:52.944Z,45.53
2019-05-06T08:32:22.766Z,48.00
2019-05-06T08:34:52.390Z,44.88
2019-05-06T08:37:18.987Z,48.74
2019-05-06T08:39:47.402Z,50.58
2019-05-06T08:44:53.172Z,45.99
2019-05-06T08:47:22.373Z,43.70
2019-05-06T08:52:23.924Z,43.95
2019-05-06T08:54:52.652Z,44.02
2019-05-06T08:57:22.736Z,46.38
2019-05-06T08:59:49.130Z,43.26
2019-05-06T09:02:17.728Z,47.37
2019-05-06T09:04:46.073Z,42.26
2019-05-06T09:09:48.619Z,40.63
2019-05-06T09:12:17.081Z,41.59
2019-05-06T09:14:45.428Z,40.57
2019-05-06T09:17:13.817Z,39.47
2019-05-06T09:19:42.676Z,38.19
2019-05-06T09:22:12.796Z,38.29
2019-05-06T09:24:39.148Z,38.43
2019-05-06T09:27:09.686Z,38.78
2019-05-06T09:29:38.873Z,38.80
2019-05-06T09:32:07.257Z,36.37
2019-05-06T09:34:43.063Z,34.41
2019-05-06T09:37:13.349Z,34.10
2019-05-06T09:39:39.722Z,31.65
2019-05-06T09:42:08.071Z,27.73
2019-05-06T09:44:36.481Z,32.47
2019-05-06T09:47:04.850Z,31.21
2019-05-06T09:49:33.198Z,24.81
2019-05-06T09:52:02.513Z,30.68
2019-05-06T09:54:32.203Z,30.21
2019-05-06T09:57:02.392Z,24.16
2019-05-06T09:59:29.327Z,31.04
2019-05-06T10:04:35.030Z,24.30
2019-05-06T10:07:03.619Z,23.83
2019-05-06T10:09:32.621Z,29.49
2019-05-06T10:14:34.714Z,32.83
2019-05-06T10:17:04.372Z,32.31
2019-05-06T10:19:32.118Z,37.03
2019-05-06T10:24:34.250Z,34.27
2019-05-06T10:27:02.706Z,35.08
2019-05-06T10:29:34.342Z,37.16
2019-05-06T10:34:38.952Z,38.66
2019-05-06T10:47:24.196Z,36.36
2019-05-06T10:49:53.033Z,36.65
2019-05-06T10:52:21.896Z,37.94
2019-05-06T10:54:50.790Z,34.34
2019-05-06T10:59:56.378Z,34.49
2019-05-06T11:05:18.128Z,36.72
2019-05-06T11:07:46.506Z,36.50
2019-05-06T11:10:23.773Z,36.97
2019-05-06T11:15:23.254Z,36.75
2019-05-06T11:17:49.508Z,36.48
2019-05-06T11:25:29.568Z,35.90
2019-05-06T11:27:57.890Z,36.47
2019-05-06T11:30:33.144Z,35.27
2019-05-06T11:33:04.772Z,34.07
2019-05-06T11:38:24.959Z,37.11
2019-05-06T11:40:53.408Z,35.53
2019-05-06T11:43:22.775Z,36.46
2019-05-06T11:48:26.092Z,34.57
2019-05-06T11:50:54.440Z,39.76
2019-05-06T11:53:23.267Z,36.19
2019-05-06T11:55:54.422Z,36.13
2019-05-06T11:58:24.989Z,36.88
2019-05-06T12:00:53.358Z,37.20
2019-05-06T12:03:23.313Z,40.31
2019-05-06T12:05:50.073Z,41.24
2019-05-06T12:08:19.413Z,42.15
2019-05-06T12:10:47.783Z,40.75
2019-05-06T12:13:16.125Z,41.98
2019-05-06T12:15:44.520Z,41.96
2019-05-06T12:18:12.882Z,43.98
2019-05-06T12:20:42.585Z,40.92
2019-05-06T12:23:09.569Z,39.00
2019-05-06T12:25:37.988Z,37.74
2019-05-06T12:28:06.318Z,36.90
2019-05-06T12:30:34.794Z,36.27
2019-05-06T12:35:56.464Z,36.84
2019-05-06T12:38:30.933Z,37.11
2019-05-06T12:40:59.903Z,37.48
2019-05-06T12:43:43.081Z,39.49
2019-05-06T12:46:15.880Z,41.72
2019-05-06T12:48:44.421Z,44.46
2019-05-06T12:53:47.954Z,43.29
2019-05-06T12:56:16.338Z,44.19
2019-05-06T12:58:44.685Z,45.37
2019-05-06T13:01:13.843Z,42.75
2019-05-06T13:06:25.965Z,44.66
2019-05-06T13:08:58.898Z,45.81
2019-05-06T13:11:19.405Z,45.08
2019-05-06T13:13:59.864Z,45.25
2019-05-06T13:16:16.077Z,45.44
2019-05-06T13:21:18.642Z,44.50
2019-05-06T13:23:47.019Z,45.15
2019-05-06T13:26:15.446Z,42.37
2019-05-06T13:28:43.810Z,43.12
2019-05-06T13:33:46.842Z,39.08
2019-05-06T13:38:49.264Z,38.97
2019-05-06T13:41:17.637Z,41.12
2019-05-06T13:43:53.942Z,40.38
2019-05-06T13:46:19.642Z,38.85
2019-05-06T13:51:52.375Z,39.75
2019-05-06T13:56:54.475Z,36.80
2019-05-06T13:59:22.890Z,35.50
2019-05-06T14:04:25.384Z,35.46
2019-05-06T14:06:53.743Z,36.38
2019-05-06T14:09:29.522Z,37.25
2019-05-06T14:11:52.517Z,38.02
2019-05-06T14:14:19.796Z,37.80
2019-05-06T14:19:22.656Z,35.09
2019-05-06T14:21:52.296Z,34.60
2019-05-06T14:24:19.331Z,37.10
2019-05-06T14:26:49.496Z,35.79
2019-05-06T14:29:18.193Z,36.35
2019-05-06T14:31:52.525Z,36.86
2019-05-06T14:34:19.808Z,36.86
2019-05-06T14:39:23.872Z,39.08
2019-05-06T14:41:53.521Z,39.98
2019-05-06T14:44:23.264Z,41.45
2019-05-06T14:46:54.951Z,42.63
2019-05-06T14:49:25.328Z,41.12
2019-05-06T14:51:53.839Z,42.56
2019-05-06T14:54:22.226Z,42.47
2019-05-06T14:56:50.502Z,41.51
2019-05-06T14:59:18.954Z,41.44
2019-05-06T15:04:22.996Z,42.69
2019-05-06T15:09:29.625Z,40.42
2019-05-06T15:11:57.967Z,40.70
2019-05-06T15:17:02.196Z,41.45
2019-05-06T15:19:29.857Z,40.68
2019-05-06T15:21:59.125Z,41.35
2019-05-06T15:27:04.790Z,42.64
2019-05-06T15:32:09.662Z,42.55
2019-05-06T15:37:27.066Z,41.18
2019-05-06T15:39:55.399Z,40.43
2019-05-06T15:42:23.779Z,39.86
2019-05-06T15:47:26.354Z,40.31
2019-05-06T15:49:54.770Z,40.20
2019-05-06T15:52:23.652Z,39.36
2019-05-06T15:54:52.458Z,37.63
2019-05-06T15:57:20.005Z,37.77
2019-05-06T15:59:48.921Z,39.47
2019-05-06T16:02:17.430Z,38.43
2019-05-06T16:04:45.773Z,39.12
2019-05-06T16:07:14.115Z,39.42
2019-05-06T16:12:17.699Z,42.46
2019-05-06T16:14:46.068Z,43.82
2019-05-06T16:17:15.140Z,46.66
2019-05-06T16:19:47.182Z,45.33
2019-05-06T16:22:15.482Z,46.92
2019-05-06T16:24:46.760Z,46.13
2019-05-06T16:27:15.141Z,47.15
2019-05-06T16:29:43.478Z,49.42
2019-05-06T16:34:48.123Z,51.08
2019-05-06T16:37:16.520Z,50.83
2019-05-06T16:42:19.115Z,48.74
2019-05-06T16:44:47.450Z,50.58
2019-05-06T16:47:15.808Z,50.23
2019-05-06T16:49:48.517Z,50.52
2019-05-06T16:52:16.853Z,51.56
2019-05-06T16:57:19.459Z,51.69
2019-05-06T17:02:26.632Z,51.47
2019-05-06T17:07:46.844Z,50.70
2019-05-06T17:10:15.178Z,52.72
2019-05-06T17:12:44.530Z,56.10
2019-05-06T17:15:12.870Z,58.00
2019-05-06T17:17:46.618Z,59.26
2019-05-06T17:20:12.163Z,60.00
2019-05-06T17:22:38.950Z,61.00
2019-05-06T17:25:07.280Z,60.91
2019-05-06T17:27:35.612Z,62.62
2019-05-06T17:30:05.818Z,61.90
2019-05-06T17:32:34.171Z,61.89
2019-05-06T17:35:02.841Z,63.60
2019-05-06T17:37:37.179Z,63.95
2019-05-06T17:40:10.766Z,64.02
2019-05-06T17:42:35.864Z,63.13
2019-05-06T17:45:04.998Z,62.82
2019-05-06T17:47:33.481Z,62.50
2019-05-06T17:50:02.822Z,62.70
2019-05-06T17:52:30.062Z,62.94
2019-05-06T17:54:58.434Z,62.97
2019-05-06T17:57:26.801Z,63.46
2019-05-06T17:59:55.135Z,63.09
2019-05-06T18:02:23.479Z,64.21
2019-05-06T18:04:53.228Z,63.72
2019-05-06T18:09:54.415Z,64.53
2019-05-06T18:12:23.346Z,65.10
2019-05-06T18:14:53.192Z,65.96
2019-05-06T18:17:19.488Z,66.19
2019-05-06T18:19:47.847Z,65.13
2019-05-06T18:22:16.193Z,68.36
2019-05-06T18:24:44.535Z,68.50
2019-05-06T18:27:13.855Z,67.97
2019-05-06T18:29:42.374Z,70.28
2019-05-06T18:34:44.812Z,70.98
2019-05-06T18:37:13.187Z,71.56
2019-05-06T18:39:42.696Z,72.65
2019-05-06T18:42:19.175Z,70.18
2019-05-06T18:44:42.073Z,73.30
2019-05-06T18:47:08.554Z,75.09
2019-05-06T18:49:36.953Z,75.22
2019-05-06T18:52:05.298Z,75.60
2019-05-06T18:54:34.054Z,76.22
2019-05-06T18:57:04.677Z,75.21
2019-05-06T18:59:32.411Z,75.79
2019-05-06T19:04:33.480Z,77.04
2019-05-06T19:07:10.670Z,77.84
2019-05-06T19:09:32.621Z,78.38
2019-05-06T19:11:59.450Z,78.92
2019-05-06T19:14:27.802Z,78.55
2019-05-06T19:19:34.218Z,79.70
2019-05-06T19:22:02.736Z,79.22
2019-05-06T19:24:30.190Z,79.71
2019-05-06T19:26:59.505Z,80.02
2019-05-06T19:29:27.843Z,80.33
2019-05-06T19:31:56.208Z,79.76
2019-05-06T19:34:24.549Z,79.07
2019-05-06T19:39:27.114Z,78.90
2019-05-06T19:44:54.178Z,77.92
2019-05-06T19:47:22.583Z,77.61
2019-05-06T19:49:53.002Z,79.09
2019-05-06T19:52:19.303Z,78.56
2019-05-06T19:54:47.648Z,77.94
2019-05-06T19:57:16.152Z,78.52
2019-05-06T19:59:44.397Z,79.84
2019-05-06T20:04:48.970Z,78.61
2019-05-06T20:07:37.160Z,78.90
2019-05-06T20:10:09.349Z,78.92
2019-05-06T20:12:37.702Z,78.44
2019-05-06T20:15:13.255Z,78.79
2019-05-06T20:17:39.966Z,78.43
2019-05-06T20:20:08.340Z,77.82
2019-05-06T20:22:36.816Z,76.86
2019-05-06T20:25:05.148Z,77.06
2019-05-06T20:27:33.506Z,76.64
2019-05-06T20:30:03.399Z,75.00
2019-05-06T20:32:32.173Z,73.67
2019-05-06T20:34:58.861Z,74.06
2019-05-06T20:37:27.266Z,73.93
2019-05-06T20:39:55.596Z,73.41
2019-05-06T20:42:23.921Z,73.46
2019-05-06T20:44:52.504Z,74.98
2019-05-06T20:47:20.665Z,75.15
2019-05-06T20:49:49.090Z,74.33
2019-05-06T20:52:17.474Z,74.64
2019-05-06T20:54:45.808Z,74.80
2019-05-06T20:57:14.152Z,74.34
2019-05-06T20:59:42.853Z,74.68
2019-05-06T21:02:12.524Z,74.88
2019-05-06T21:04:40.508Z,75.53
2019-05-06T21:07:08.874Z,75.14
2019-05-06T21:09:37.291Z,76.44
2019-05-06T21:12:05.692Z,76.50
2019-05-06T21:14:34.023Z,76.73
2019-05-06T21:17:02.685Z,76.20
2019-05-06T21:19:32.926Z,78.03
2019-05-06T21:24:36.063Z,79.29
2019-05-06T21:27:02.764Z,79.82
2019-05-06T21:29:32.341Z,79.06
2019-05-06T21:31:58.644Z,79.67
2019-05-06T21:34:27.002Z,80.04
2019-05-06T21:36:55.488Z,79.14
2019-05-06T21:39:23.847Z,80.18
2019-05-06T21:41:52.334Z,80.58
2019-05-06T21:44:22.641Z,81.14
2019-05-06T21:46:49.041Z,80.87
2019-05-06T21:49:17.379Z,81.48
2019-05-06T21:51:45.726Z,81.90
2019-05-06T21:54:15.058Z,80.68
2019-05-06T21:56:44.365Z,82.19
2019-05-06T21:59:13.037Z,82.01
2019-05-06T22:01:42.933Z,82.89
2019-05-06T22:04:09.421Z,83.03
2019-05-06T22:06:37.767Z,82.92
2019-05-06T22:09:07.080Z,83.24
2019-05-06T22:11:35.436Z,82.79
2019-05-06T22:14:03.769Z,82.85
2019-05-06T22:16:32.391Z,83.06
2019-05-06T22:19:02.566Z,81.86
2019-05-06T22:21:28.864Z,82.58
2019-05-06T22:23:58.992Z,83.48
2019-05-06T22:26:27.426Z,83.68
2019-05-06T22:28:55.757Z,83.81
2019-05-06T22:33:58.417Z,83.78
2019-05-06T22:36:26.750Z,84.12
2019-05-06T22:38:55.102Z,84.12
2019-05-06T22:41:25.498Z,84.56
2019-05-06T22:43:53.180Z,85.30
2019-05-06T22:46:20.180Z,85.07
2019-05-06T22:48:49.566Z,84.40
2019-05-06T22:51:17.906Z,84.43
2019-05-06T22:53:46.249Z,84.30
2019-05-06T22:56:14.591Z,84.78
2019-05-06T22:58:42.969Z,84.86
2019-05-06T23:04:09.301Z,83.87
2019-05-06T23:06:37.661Z,83.54
2019-05-06T23:09:06.025Z,84.54
2019-05-06T23:11:34.385Z,85.01
2019-05-06T23:14:02.909Z,85.32
2019-05-06T23:16:32.866Z,86.21
2019-05-06T23:21:34.758Z,87.01
2019-05-06T23:24:03.107Z,87.47
2019-05-06T23:26:31.452Z,88.70
2019-05-06T23:28:59.812Z,89.53
2019-05-06T23:34:04.916Z,90.09
2019-05-06T23:36:30.802Z,90.33
2019-05-06T23:39:16.935Z,90.47
2019-05-06T23:42:03.050Z,91.02
2019-05-06T23:44:49.274Z,91.06
2019-05-06T23:47:35.578Z,91.51
2019-05-06T23:50:22.977Z,91.71
2019-05-06T23:53:07.779Z,91.62
2019-05-06T23:55:53.946Z,92.09
2019-05-06T23:58:22.484Z,90.94
